Hs Rossini — 9HA2934 — position and weather

sailwx.info

Track history (hours):
 
Tides and Currents Weather Stations Pressure Air Temp Water Temp Dewpoint Dewpoint Depression Visibility Wind Speed Wind Dir Waves Ship Positions

Hs Rossini

Last reported at 2017-Sep-13 03:10 UTC. Time now 2017-Sep-22 02:50 UTC.
Position S 05°19' E 010°54'.
Warning: this ship's position is 8 days out of date.

Length 228 m; draft 10.4 m.

Type: Ship (hazmat cat A). MMSI: 256816000.

Date/timePositionNaut miles runAvg speedWind from/ knotsBaromVisibWave heightAir tempDewpointWater temp
2017-Sep-13 03:10S 05°19' E 010°54'317.3
2017-Sep-13 02:58S 05°17' E 010°57'817.1
2017-Sep-13 02:30S 05°13' E 011°04'916.9
2017-Sep-13 01:59S 05°08' E 011°11'817.2
2017-Sep-13 01:30S 05°05' E 011°19'917.4
2017-Sep-13 01:00S 05°02' E 011°27'21 0.6
2017-Sep-11 12:16S 04°50' E 011°45'6 1.4
2017-Sep-11 07:55S 04°52' E 011°39'613.3
2017-Sep-11 07:30S 04°55' E 011°34'815.6
2017-Sep-11 07:00S 05°02' E 011°31'815.9
2017-Sep-11 06:30S 05°05' E 011°23'816.8
2017-Sep-11 06:00S 05°07' E 011°15'1017.1
2017-Sep-11 05:25S 05°16' E 011°11'716.2
2017-Sep-11 05:00S 05°23' E 011°13'917.0
2017-Sep-11 04:27S 05°31' E 011°17'  
2017-Sep-04 14:28S 33°50' E 017°56'917.9
2017-Sep-04 13:59S 33°58' E 018°01'  
Track history (hours):
 
Tides and Currents Weather Stations Pressure Air Temp Water Temp Dewpoint Dewpoint Depression Visibility Wind Speed Wind Dir Waves Ship Positions

Hs Rossini

Last reported at 2017-Sep-13 03:10 UTC. Time now 2017-Sep-22 02:50 UTC.
Position S 05°19' E 010°54'.
Warning: this ship's position is 8 days out of date.

Length 228 m; draft 10.4 m.

Type: Ship (hazmat cat A). MMSI: 256816000.

Date/timePositionNaut miles runAvg speedWind from/ knotsBaromVisibWave heightAir tempDewpointWater temp
2017-Sep-13 03:10S 05°19' E 010°54'317.3
2017-Sep-13 02:58S 05°17' E 010°57'817.1
2017-Sep-13 02:30S 05°13' E 011°04'916.9
2017-Sep-13 01:59S 05°08' E 011°11'817.2
2017-Sep-13 01:30S 05°05' E 011°19'917.4
2017-Sep-13 01:00S 05°02' E 011°27'21 0.6
2017-Sep-11 12:16S 04°50' E 011°45'6 1.4
2017-Sep-11 07:55S 04°52' E 011°39'613.3
2017-Sep-11 07:30S 04°55' E 011°34'815.6
2017-Sep-11 07:00S 05°02' E 011°31'815.9
2017-Sep-11 06:30S 05°05' E 011°23'816.8
2017-Sep-11 06:00S 05°07' E 011°15'1017.1
2017-Sep-11 05:25S 05°16' E 011°11'716.2
2017-Sep-11 05:00S 05°23' E 011°13'917.0
2017-Sep-11 04:27S 05°31' E 011°17'  
2017-Sep-04 14:28S 33°50' E 017°56'917.9
2017-Sep-04 13:59S 33°58' E 018°01'  

Dump ship's entire track history